createdAt,value
2024-01-16T00:01:17.703Z,79.32
2024-01-16T00:03:49.559Z,79.15
2024-01-16T00:06:20.215Z,78.78
2024-01-16T00:08:50.532Z,79.18
2024-01-16T00:11:20.813Z,79.66
2024-01-16T00:13:51.175Z,79.64
2024-01-16T00:16:21.353Z,79.36
2024-01-16T00:18:52.096Z,79.60
2024-01-16T00:21:22.433Z,79.79
2024-01-16T00:23:52.715Z,80.10
2024-01-16T00:26:23.414Z,80.25
2024-01-16T00:28:53.883Z,80.08
2024-01-16T00:31:24.847Z,79.30
2024-01-16T00:33:55.693Z,79.35
2024-01-16T00:36:26.112Z,79.66
2024-01-16T00:38:56.383Z,79.93
2024-01-16T00:41:26.767Z,79.77
2024-01-16T00:43:56.995Z,80.24
2024-01-16T00:46:27.241Z,80.23
2024-01-16T00:48:57.545Z,80.14
2024-01-16T00:51:27.965Z,80.25
2024-01-16T00:53:58.216Z,80.42
2024-01-16T00:56:29.582Z,79.78
2024-01-16T00:58:59.771Z,80.33
2024-01-16T01:01:30.034Z,80.56
2024-01-16T01:04:00.337Z,80.93
2024-01-16T01:06:30.585Z,80.45
2024-01-16T01:09:00.853Z,80.02
2024-01-16T01:11:31.143Z,79.62
2024-01-16T01:14:01.610Z,79.66
2024-01-16T01:16:31.856Z,79.77
2024-01-16T01:19:02.228Z,79.31
2024-01-16T01:21:32.678Z,79.54
2024-01-16T01:24:02.988Z,79.29
2024-01-16T01:26:33.262Z,79.34
2024-01-16T01:29:03.556Z,77.68
2024-01-16T01:31:33.899Z,77.55
2024-01-16T01:34:05.747Z,77.64
2024-01-16T01:36:36.012Z,77.63
2024-01-16T01:39:06.943Z,77.91
2024-01-16T01:41:37.108Z,78.00
2024-01-16T01:44:07.738Z,77.77
2024-01-16T01:46:38.109Z,77.98
2024-01-16T01:49:08.461Z,77.97
2024-01-16T01:51:38.771Z,78.37
2024-01-16T01:54:09.003Z,78.82
2024-01-16T01:56:39.549Z,79.31
2024-01-16T01:59:09.755Z,79.54
2024-01-16T02:01:40.021Z,79.62
2024-01-16T02:04:10.248Z,79.71
2024-01-16T02:06:40.530Z,79.98
2024-01-16T02:09:10.690Z,79.86
2024-01-16T02:11:41.225Z,79.81
2024-01-16T02:14:11.473Z,79.63
2024-01-16T02:16:42.204Z,79.81
2024-01-16T02:19:12.446Z,80.01
2024-01-16T02:21:45.815Z,79.30
2024-01-16T02:24:17.882Z,78.69
2024-01-16T02:26:48.370Z,78.45
2024-01-16T02:29:19.051Z,78.06
2024-01-16T02:31:49.257Z,78.19
2024-01-16T02:34:19.723Z,78.20
2024-01-16T02:36:50.253Z,77.66
2024-01-16T02:39:21.405Z,77.11
2024-01-16T02:41:52.187Z,75.85
2024-01-16T02:44:22.562Z,76.32
2024-01-16T02:46:52.825Z,76.58
2024-01-16T02:49:23.097Z,76.14
2024-01-16T02:51:53.393Z,75.11
2024-01-16T02:54:23.727Z,74.08
2024-01-16T02:56:54.082Z,74.39
2024-01-16T02:59:24.294Z,74.87
2024-01-16T03:01:54.590Z,74.33
2024-01-16T03:04:25.030Z,75.11
2024-01-16T03:06:55.290Z,74.35
2024-01-16T03:09:25.588Z,73.54
2024-01-16T03:11:55.944Z,73.24
2024-01-16T03:14:26.182Z,73.65
2024-01-16T03:16:56.620Z,73.13
2024-01-16T03:19:26.872Z,73.24
2024-01-16T03:21:57.173Z,73.05
2024-01-16T03:24:27.572Z,73.39
2024-01-16T03:26:57.858Z,73.37
2024-01-16T03:29:28.262Z,73.12
2024-01-16T03:31:58.634Z,73.47
2024-01-16T03:34:29.397Z,73.78
2024-01-16T03:36:59.649Z,73.14
2024-01-16T03:39:29.793Z,74.02
2024-01-16T03:42:00.071Z,73.71
2024-01-16T03:44:30.772Z,73.75
2024-01-16T03:47:01.036Z,74.22
2024-01-16T03:49:31.190Z,74.22
2024-01-16T03:52:01.444Z,74.16
2024-01-16T03:54:31.916Z,74.08
2024-01-16T03:57:02.435Z,73.64
2024-01-16T03:59:32.802Z,74.23
2024-01-16T04:02:04.746Z,74.31
2024-01-16T04:04:35.058Z,74.00
2024-01-16T04:07:05.478Z,74.37
2024-01-16T04:09:36.390Z,74.37
2024-01-16T04:12:09.403Z,74.48
2024-01-16T04:14:39.579Z,74.23
2024-01-16T04:17:09.887Z,74.31
2024-01-16T04:19:40.654Z,74.18
2024-01-16T04:22:10.933Z,74.31
2024-01-16T04:24:41.093Z,74.40
2024-01-16T04:27:12.062Z,74.61
2024-01-16T04:29:42.221Z,74.68
2024-01-16T04:32:12.506Z,74.38
2024-01-16T04:34:42.972Z,74.66
2024-01-16T04:37:13.370Z,74.80
2024-01-16T04:39:43.621Z,74.37
2024-01-16T04:42:13.982Z,74.15
2024-01-16T04:44:44.580Z,73.58
2024-01-16T04:47:14.939Z,73.90
2024-01-16T04:49:46.500Z,74.07
2024-01-16T04:52:16.893Z,73.97
2024-01-16T04:54:47.734Z,73.66
2024-01-16T04:57:17.990Z,74.00
2024-01-16T04:59:48.203Z,74.20
2024-01-16T05:02:19.430Z,74.49
2024-01-16T05:04:53.415Z,74.52
2024-01-16T05:07:23.737Z,74.63
2024-01-16T05:09:54.925Z,74.23
2024-01-16T05:12:25.222Z,74.24
2024-01-16T05:14:55.536Z,74.68
2024-01-16T05:17:25.978Z,75.01
2024-01-16T05:19:56.189Z,74.99
2024-01-16T05:22:26.609Z,74.88
2024-01-16T05:24:56.854Z,74.77
2024-01-16T05:27:27.479Z,74.97
2024-01-16T05:29:57.721Z,75.01
2024-01-16T05:32:28.363Z,74.87
2024-01-16T05:34:58.654Z,75.17
2024-01-16T05:37:30.806Z,75.44
2024-01-16T05:40:01.057Z,75.27
2024-01-16T05:42:31.343Z,75.46
2024-01-16T05:45:01.521Z,75.45
2024-01-16T05:47:32.068Z,75.51
2024-01-16T05:50:02.449Z,75.17
2024-01-16T05:52:32.734Z,75.23
2024-01-16T05:55:04.066Z,75.23
2024-01-16T05:57:34.920Z,74.72
2024-01-16T06:00:07.007Z,74.83
2024-01-16T06:02:37.547Z,74.93
2024-01-16T06:05:08.347Z,75.19
2024-01-16T06:07:38.716Z,75.44
2024-01-16T06:10:10.472Z,75.37
2024-01-16T06:12:40.744Z,75.34
2024-01-16T06:15:12.624Z,75.23
2024-01-16T06:17:43.182Z,75.49
2024-01-16T06:20:13.952Z,75.49
2024-01-16T06:22:44.233Z,75.07
2024-01-16T06:25:14.409Z,75.29
2024-01-16T06:27:44.639Z,75.11
2024-01-16T06:30:15.614Z,75.09
2024-01-16T06:32:46.110Z,75.02
2024-01-16T06:35:17.773Z,75.35
2024-01-16T06:37:47.964Z,75.27
2024-01-16T06:40:18.328Z,75.61
2024-01-16T06:42:48.598Z,75.38
2024-01-16T06:45:20.576Z,74.90
2024-01-16T06:47:52.018Z,74.77
2024-01-16T06:50:22.475Z,74.80
2024-01-16T06:52:52.717Z,75.36
2024-01-16T06:55:22.898Z,75.06
2024-01-16T06:57:53.526Z,74.54
2024-01-16T07:00:27.232Z,74.04
2024-01-16T07:02:57.529Z,74.51
2024-01-16T07:05:27.948Z,74.45
2024-01-16T07:07:59.401Z,74.19
2024-01-16T07:10:29.543Z,73.86
2024-01-16T07:12:59.887Z,74.12
2024-01-16T07:15:30.271Z,74.36
2024-01-16T07:18:01.093Z,73.78
2024-01-16T07:20:31.466Z,73.92
2024-01-16T07:23:02.266Z,74.21
2024-01-16T07:25:32.573Z,74.09
2024-01-16T07:28:02.855Z,74.17
2024-01-16T07:30:33.074Z,74.32
2024-01-16T07:33:03.599Z,73.99
2024-01-16T07:35:34.120Z,74.48
2024-01-16T07:38:05.810Z,73.99
2024-01-16T07:40:36.498Z,74.33
2024-01-16T07:43:07.972Z,73.96
2024-01-16T07:45:38.143Z,74.14
2024-01-16T07:48:09.747Z,74.00
2024-01-16T07:50:40.099Z,73.94
2024-01-16T07:53:10.343Z,74.18
2024-01-16T07:55:40.838Z,74.29
2024-01-16T07:58:12.130Z,74.21
2024-01-16T08:00:43.095Z,74.28
2024-01-16T08:03:13.639Z,74.36
2024-01-16T08:05:44.423Z,74.02
2024-01-16T08:08:15.102Z,72.90
2024-01-16T08:10:45.459Z,72.21
2024-01-16T08:13:15.700Z,72.29
2024-01-16T08:15:45.881Z,72.09
2024-01-16T08:18:19.047Z,71.84
2024-01-16T08:20:49.519Z,72.71
2024-01-16T08:23:19.733Z,70.89
2024-01-16T08:25:50.362Z,68.74
2024-01-16T08:28:23.655Z,65.89
2024-01-16T08:30:54.404Z,64.44
2024-01-16T08:33:31.467Z,65.06
2024-01-16T08:36:09.797Z,63.59
2024-01-16T08:38:40.109Z,62.55
2024-01-16T08:41:10.774Z,61.69
2024-01-16T08:43:41.056Z,61.24
2024-01-16T08:46:11.396Z,58.83
2024-01-16T08:48:42.952Z,59.14
2024-01-16T08:51:15.310Z,57.43
2024-01-16T08:53:45.671Z,57.65
2024-01-16T08:56:18.378Z,57.32
2024-01-16T08:58:48.791Z,58.95
2024-01-16T09:01:19.097Z,58.90
2024-01-16T09:03:49.677Z,58.48
2024-01-16T09:06:20.024Z,54.52
2024-01-16T09:08:50.514Z,55.13
2024-01-16T09:11:20.863Z,55.11
2024-01-16T09:13:51.087Z,55.87
2024-01-16T09:16:21.320Z,53.18
2024-01-16T09:18:52.053Z,51.13
2024-01-16T09:21:22.604Z,51.45
2024-01-16T09:23:52.939Z,51.94
2024-01-16T09:26:24.183Z,52.29
2024-01-16T09:28:54.487Z,52.98
2024-01-16T09:31:24.764Z,53.53
2024-01-16T09:33:55.089Z,54.01
2024-01-16T09:36:28.421Z,54.80
2024-01-16T09:38:58.807Z,53.65
2024-01-16T09:41:29.237Z,53.62
2024-01-16T09:43:59.611Z,53.79
2024-01-16T09:46:31.933Z,54.32
2024-01-16T09:49:03.286Z,55.44
2024-01-16T09:51:33.631Z,56.02
2024-01-16T09:54:09.854Z,57.02
2024-01-16T09:56:45.270Z,57.38
2024-01-16T09:59:20.393Z,57.74
2024-01-16T10:01:50.757Z,58.60
2024-01-16T10:04:21.026Z,59.17
2024-01-16T10:06:51.483Z,59.28
2024-01-16T10:09:21.832Z,58.71
2024-01-16T10:11:52.299Z,59.45
2024-01-16T10:14:22.733Z,59.85
2024-01-16T10:17:00.072Z,60.09
2024-01-16T10:19:42.419Z,59.90
2024-01-16T10:22:17.838Z,59.92
2024-01-16T10:24:48.124Z,59.53
2024-01-16T10:27:19.444Z,59.67
2024-01-16T10:29:59.054Z,60.23
2024-01-16T10:32:33.480Z,60.09
2024-01-16T10:35:09.575Z,59.75
2024-01-16T10:37:47.790Z,60.24
2024-01-16T10:40:21.988Z,59.88
2024-01-16T10:43:00.988Z,60.11
2024-01-16T10:45:31.646Z,60.71
2024-01-16T10:48:05.833Z,60.17
2024-01-16T10:50:36.699Z,60.51
2024-01-16T10:53:07.363Z,60.35
2024-01-16T10:55:39.506Z,60.18
2024-01-16T10:58:13.044Z,60.60
2024-01-16T11:00:44.920Z,60.77
2024-01-16T11:03:18.712Z,60.91
2024-01-16T11:05:52.193Z,61.31
2024-01-16T11:08:23.533Z,61.13
2024-01-16T11:10:53.815Z,60.59
2024-01-16T11:13:24.591Z,60.50
2024-01-16T11:15:54.936Z,60.97
2024-01-16T11:18:25.256Z,60.38
2024-01-16T11:21:04.823Z,61.05
2024-01-16T11:23:38.562Z,60.93
2024-01-16T11:26:24.551Z,60.03
2024-01-16T11:28:57.903Z,60.15
2024-01-16T11:31:31.882Z,59.85
2024-01-16T11:34:02.967Z,59.42
2024-01-16T11:36:50.144Z,59.85
2024-01-16T11:39:21.314Z,60.13
2024-01-16T11:41:52.832Z,60.66
2024-01-16T11:44:48.582Z,60.61
2024-01-16T11:47:19.892Z,61.01
2024-01-16T11:49:50.741Z,61.28
2024-01-16T11:52:41.015Z,61.07
2024-01-16T11:55:24.900Z,60.97
2024-01-16T11:57:58.511Z,61.17
2024-01-16T12:00:28.879Z,60.26
2024-01-16T12:02:59.541Z,60.28
2024-01-16T12:05:30.098Z,61.28
2024-01-16T12:08:00.669Z,60.57
2024-01-16T12:10:31.021Z,58.45
2024-01-16T12:13:04.457Z,59.36
2024-01-16T12:15:36.097Z,60.96
2024-01-16T12:18:09.249Z,61.10
2024-01-16T12:20:43.698Z,60.80
2024-01-16T12:23:14.321Z,61.76
2024-01-16T12:26:01.516Z,62.09
2024-01-16T12:28:34.516Z,62.06
2024-01-16T12:31:06.677Z,60.93
2024-01-16T12:36:08.709Z,61.45
2024-01-16T12:38:39.366Z,60.78
2024-01-16T12:41:09.971Z,60.66
2024-01-16T12:43:40.184Z,60.93
2024-01-16T12:46:10.449Z,61.96
2024-01-16T12:48:50.630Z,61.83
2024-01-16T12:51:26.780Z,61.93
2024-01-16T12:53:57.776Z,62.11
2024-01-16T12:56:37.793Z,62.93
2024-01-16T12:59:14.084Z,62.79
2024-01-16T13:01:45.589Z,62.87
2024-01-16T13:04:20.363Z,62.81
2024-01-16T13:06:51.708Z,63.36
2024-01-16T13:09:22.122Z,63.09
2024-01-16T13:11:53.620Z,62.77
2024-01-16T13:14:25.104Z,63.08
2024-01-16T13:16:57.286Z,63.21
2024-01-16T13:19:28.061Z,63.44
2024-01-16T13:21:58.322Z,63.28
2024-01-16T13:24:28.882Z,62.76
2024-01-16T13:26:59.725Z,63.21
2024-01-16T13:29:30.243Z,63.44
2024-01-16T13:32:01.643Z,63.00
2024-01-16T13:34:32.111Z,63.24
2024-01-16T13:37:15.163Z,64.05
2024-01-16T13:39:46.836Z,63.69
2024-01-16T13:42:19.650Z,63.60
2024-01-16T13:44:50.083Z,63.54
2024-01-16T13:47:23.197Z,63.98
2024-01-16T13:49:53.786Z,64.09
2024-01-16T13:52:26.697Z,63.54
2024-01-16T13:54:58.742Z,64.09
2024-01-16T13:57:29.107Z,64.35
2024-01-16T14:00:00.324Z,64.44
2024-01-16T14:02:31.103Z,64.85
2024-01-16T14:05:01.934Z,64.64
2024-01-16T14:07:32.354Z,64.74
2024-01-16T14:10:04.379Z,64.80
2024-01-16T14:12:36.761Z,64.88
2024-01-16T14:15:17.173Z,64.48
2024-01-16T14:17:48.011Z,64.06
2024-01-16T14:20:18.992Z,64.11
2024-01-16T14:22:49.177Z,64.58
2024-01-16T14:25:19.999Z,64.71
2024-01-16T14:27:58.413Z,64.79
2024-01-16T14:30:28.896Z,65.19
2024-01-16T14:32:59.358Z,65.47
2024-01-16T14:35:29.893Z,65.63
2024-01-16T14:38:00.074Z,65.85
2024-01-16T14:40:31.114Z,66.04
2024-01-16T14:43:05.369Z,66.03
2024-01-16T14:45:35.758Z,66.39
2024-01-16T14:48:07.497Z,66.35
2024-01-16T14:50:38.268Z,66.57
2024-01-16T14:53:08.524Z,66.79
2024-01-16T14:55:39.299Z,66.87
2024-01-16T14:58:11.212Z,67.16
2024-01-16T15:00:42.086Z,67.37
2024-01-16T15:03:12.864Z,67.61
2024-01-16T15:05:43.323Z,67.49
2024-01-16T15:08:14.172Z,67.74
2024-01-16T15:10:44.639Z,67.75
2024-01-16T15:13:15.008Z,68.04
2024-01-16T15:15:45.682Z,67.75
2024-01-16T15:18:16.029Z,68.12
2024-01-16T15:20:47.472Z,68.28
2024-01-16T15:23:18.203Z,68.31
2024-01-16T15:25:48.434Z,68.43
2024-01-16T15:28:18.815Z,68.55
2024-01-16T15:30:49.104Z,68.51
2024-01-16T15:33:19.442Z,68.89
2024-01-16T15:35:49.869Z,70.44
2024-01-16T15:38:20.594Z,69.71
2024-01-16T15:40:51.071Z,69.12
2024-01-16T15:43:21.320Z,69.21
2024-01-16T15:45:51.993Z,68.78
2024-01-16T15:48:22.283Z,69.14
2024-01-16T15:50:52.552Z,69.01
2024-01-16T15:53:22.789Z,69.01
2024-01-16T15:55:53.133Z,69.04
2024-01-16T15:58:23.438Z,69.10
2024-01-16T16:00:53.776Z,69.29
2024-01-16T16:03:24.144Z,69.09
2024-01-16T16:05:55.532Z,69.23
2024-01-16T16:08:26.577Z,69.53
2024-01-16T16:10:58.027Z,69.32
2024-01-16T16:13:32.575Z,69.43
2024-01-16T16:16:03.524Z,69.80
2024-01-16T16:18:35.932Z,69.47
2024-01-16T16:21:06.753Z,69.55
2024-01-16T16:23:36.970Z,69.62
2024-01-16T16:26:07.696Z,69.29
2024-01-16T16:28:38.970Z,69.60
2024-01-16T16:31:09.146Z,69.61
2024-01-16T16:33:39.571Z,69.76
2024-01-16T16:36:10.212Z,69.57
2024-01-16T16:38:42.537Z,69.45
2024-01-16T16:41:12.715Z,69.76
2024-01-16T16:43:42.949Z,70.01
2024-01-16T16:46:13.179Z,69.75
2024-01-16T16:48:44.960Z,69.75
2024-01-16T16:51:15.985Z,70.21
2024-01-16T16:53:46.511Z,70.18
2024-01-16T16:56:18.188Z,70.29
2024-01-16T16:58:48.508Z,70.29
2024-01-16T17:01:19.177Z,70.59
2024-01-16T17:03:50.952Z,70.37
2024-01-16T17:06:21.663Z,70.35
2024-01-16T17:08:52.029Z,70.67
2024-01-16T17:11:22.453Z,70.53
2024-01-16T17:13:53.286Z,70.87
2024-01-16T17:16:24.520Z,70.74
2024-01-16T17:18:54.993Z,70.87
2024-01-16T17:21:25.718Z,70.68
2024-01-16T17:23:56.244Z,70.91
2024-01-16T17:26:28.698Z,70.93
2024-01-16T17:29:00.374Z,70.83
2024-01-16T17:31:30.658Z,70.90
2024-01-16T17:34:01.081Z,70.87
2024-01-16T17:36:33.062Z,71.07
2024-01-16T17:39:03.387Z,70.97
2024-01-16T17:41:37.966Z,70.99
2024-01-16T17:44:09.075Z,71.05
2024-01-16T17:46:39.365Z,71.02
2024-01-16T17:49:10.123Z,71.38
2024-01-16T17:51:40.827Z,71.39
2024-01-16T17:54:14.178Z,71.36
2024-01-16T17:56:48.594Z,71.31
2024-01-16T17:59:20.394Z,71.52
2024-01-16T18:01:51.593Z,71.55
2024-01-16T18:04:21.847Z,71.63
2024-01-16T18:06:53.190Z,71.83
2024-01-16T18:09:30.016Z,71.58
2024-01-16T18:12:00.724Z,71.85
2024-01-16T18:14:31.090Z,71.77
2024-01-16T18:17:02.428Z,71.92
2024-01-16T18:19:34.856Z,71.95
2024-01-16T18:22:07.241Z,72.20
2024-01-16T18:24:38.553Z,72.41
2024-01-16T18:27:09.148Z,72.56
2024-01-16T18:29:41.628Z,72.58
2024-01-16T18:32:13.713Z,72.63
2024-01-16T18:34:44.685Z,72.92
2024-01-16T18:37:16.196Z,73.22
2024-01-16T18:39:46.545Z,73.46
2024-01-16T18:42:17.015Z,73.67
2024-01-16T18:44:47.337Z,73.57
2024-01-16T18:47:18.249Z,73.70
2024-01-16T18:49:49.086Z,73.75
2024-01-16T18:52:19.665Z,73.75
2024-01-16T18:54:50.518Z,73.73
2024-01-16T18:57:20.854Z,73.60
2024-01-16T18:59:51.126Z,73.60
2024-01-16T19:02:22.880Z,73.69
2024-01-16T19:04:53.457Z,73.80
2024-01-16T19:07:24.716Z,73.84
2024-01-16T19:09:55.004Z,73.79
2024-01-16T19:12:25.245Z,73.78
2024-01-16T19:14:55.967Z,73.77
2024-01-16T19:17:27.423Z,73.78
2024-01-16T19:19:57.668Z,73.79
2024-01-16T19:22:27.871Z,74.08
2024-01-16T19:24:58.186Z,74.24
2024-01-16T19:27:28.748Z,74.41
2024-01-16T19:29:59.590Z,74.40
2024-01-16T19:32:29.912Z,74.49
2024-01-16T19:35:00.267Z,74.55
2024-01-16T19:37:30.564Z,74.54
2024-01-16T19:40:00.751Z,74.61
2024-01-16T19:42:31.067Z,74.79
2024-01-16T19:45:01.383Z,74.60
2024-01-16T19:47:32.021Z,74.63
2024-01-16T19:50:06.399Z,74.74
2024-01-16T19:52:37.087Z,74.67
2024-01-16T19:55:08.119Z,74.82
2024-01-16T19:57:38.680Z,74.76
2024-01-16T20:00:12.636Z,74.73
2024-01-16T20:02:44.166Z,74.84
2024-01-16T20:05:17.138Z,74.84
2024-01-16T20:07:48.052Z,75.10
2024-01-16T20:10:18.787Z,75.11
2024-01-16T20:12:49.807Z,75.38
2024-01-16T20:15:21.864Z,75.14
2024-01-16T20:17:54.636Z,75.47
2024-01-16T20:20:25.290Z,75.64
2024-01-16T20:22:55.589Z,75.85
2024-01-16T20:25:25.884Z,75.86
2024-01-16T20:27:56.214Z,76.20
2024-01-16T20:30:26.647Z,76.32
2024-01-16T20:32:57.125Z,76.43
2024-01-16T20:35:27.836Z,76.53
2024-01-16T20:37:58.101Z,76.25
2024-01-16T20:40:28.563Z,76.38
2024-01-16T20:42:58.799Z,76.42
2024-01-16T20:45:29.099Z,76.67
2024-01-16T20:47:59.612Z,76.61
2024-01-16T20:50:30.215Z,76.77
2024-01-16T20:53:01.146Z,76.68
2024-01-16T20:55:31.416Z,76.81
2024-01-16T20:58:01.889Z,76.84
2024-01-16T21:00:35.450Z,76.78
2024-01-16T21:03:10.105Z,76.71
2024-01-16T21:05:41.460Z,76.76
2024-01-16T21:08:13.322Z,76.98
2024-01-16T21:10:43.884Z,76.93
2024-01-16T21:13:15.455Z,76.95
2024-01-16T21:15:47.127Z,76.91
2024-01-16T21:18:18.353Z,77.20
2024-01-16T21:20:48.592Z,77.26
2024-01-16T21:23:19.055Z,77.34
2024-01-16T21:25:49.392Z,77.34
2024-01-16T21:28:19.568Z,77.21
2024-01-16T21:30:49.835Z,77.35
2024-01-16T21:33:20.158Z,77.57
2024-01-16T21:35:50.632Z,77.41
2024-01-16T21:38:20.989Z,77.35
2024-01-16T21:40:51.197Z,77.41
2024-01-16T21:43:22.924Z,77.59
2024-01-16T21:45:53.173Z,77.58
2024-01-16T21:48:23.691Z,77.66
2024-01-16T21:50:54.116Z,77.58
2024-01-16T21:53:24.581Z,77.77
2024-01-16T21:55:54.994Z,77.73
2024-01-16T21:58:25.300Z,77.94
2024-01-16T22:00:56.937Z,77.78
2024-01-16T22:03:27.574Z,78.00
2024-01-16T22:05:59.067Z,78.34
2024-01-16T22:08:30.990Z,78.62
2024-01-16T22:11:01.457Z,78.77
2024-01-16T22:13:31.728Z,79.00
2024-01-16T22:16:01.856Z,79.25
2024-01-16T22:18:32.495Z,79.55
2024-01-16T22:21:03.338Z,79.58
2024-01-16T22:23:33.779Z,79.49
2024-01-16T22:26:04.767Z,79.71
2024-01-16T22:28:35.036Z,79.29
2024-01-16T22:31:05.896Z,79.51
2024-01-16T22:33:36.322Z,79.80
2024-01-16T22:36:08.033Z,79.84
2024-01-16T22:38:38.386Z,79.63
2024-01-16T22:41:10.491Z,79.82
2024-01-16T22:43:40.858Z,79.74
2024-01-16T22:46:11.963Z,79.36
2024-01-16T22:48:42.640Z,79.75
2024-01-16T22:51:13.035Z,79.96
2024-01-16T22:53:43.952Z,80.19
2024-01-16T22:56:14.139Z,80.39
2024-01-16T22:58:44.692Z,80.46
2024-01-16T23:01:15.941Z,80.87
2024-01-16T23:03:48.830Z,80.80
2024-01-16T23:06:22.320Z,80.92
2024-01-16T23:08:52.709Z,80.89
2024-01-16T23:11:23.656Z,80.74
2024-01-16T23:13:54.113Z,80.75
2024-01-16T23:16:24.334Z,81.55
2024-01-16T23:18:54.810Z,81.34
2024-01-16T23:21:25.465Z,81.40
2024-01-16T23:23:55.724Z,81.85
2024-01-16T23:26:27.282Z,81.73
2024-01-16T23:28:57.787Z,82.08
2024-01-16T23:31:28.081Z,81.72
2024-01-16T23:33:58.460Z,82.09
2024-01-16T23:36:31.283Z,82.27
2024-01-16T23:39:01.751Z,82.21
2024-01-16T23:41:32.065Z,82.13
2024-01-16T23:44:02.568Z,82.56
2024-01-16T23:46:35.975Z,82.56
2024-01-16T23:49:06.276Z,82.64
2024-01-16T23:51:36.968Z,82.46
2024-01-16T23:54:08.027Z,82.19
2024-01-16T23:56:38.318Z,82.46
2024-01-16T23:59:08.802Z,82.88
